Gingin, Western Australia

6:41 PM AWST on July 28, 2016 (GMT +0800)
Muchea | | Change Station

Elev 371 ft 31.53 °S, 116.02 °E | Updated 1 minute ago

Clear
Clear
57.6 °F
Feels Like 57.6 °F
N
0.0
Wind Variable Wind from NW
Gusts 0.0 mph

Today
High -- | Low -- °F
--% Chance of Precip.
Yesterday
High -- | Low -- °F
Precip. -- in
Pressure 30.12 in
Visibility -9999.0 miles
Clouds
Dew Point 50 °F
Humidity 75%
Rainfall 0.00 in
Snow Depth Not available.
7:07 AM 5:39 PM
Waning Crescent, 33% visible
METAR YPPH 281030Z 20006KT CAVOK 17/09 Q1020 NOSIG
Pressure 30.12 in
Visibility -9999.0 miles
Clouds
Dew Point 50 °F
Humidity 75%
Rainfall 0.00 in
Snow Depth Not available.
7:07 AM 5:39 PM
Waning Crescent, 33% visible
METAR YPPH 281030Z 20006KT CAVOK 17/09 Q1020 NOSIG

10-Day Weather Forecast

Almanac

Astronomy

Jul. 28, 2016 Rise Set
Actual Time
Civil Twilight
Nautical Twilight
Astronomical Twilight
Moon
Length of Visible Light
Length of Day
Tomorrow will be .
, % of the Moon is Illuminated

Today's Extremes

Country Highs Country Lows

Community

WunderPhotos

Upload Photos

1,928,082 photos uploaded!

WunderBlog® & News

Nearby

Air Quality

  Air Quality AQ Index Pollutant
Not available.

Snow Depth

Station Depth Elevation

Earthquake Activity

City Distance Mag. Time & Date
Minimum magnitude displayed is 2.5.

Coastal Water Temperatures

Place Temperature

Stations

Nearby Weather Stations

Station Location Temp. Windchill Dew Point Humidity Wind Precip. Elev Updated Type